sensor_id;sensor_type;location;lat;lon;timestamp;P1;durP1;ratioP1;P2;durP2;ratioP2
18931;SDS011;9598;50.954;3.112;2022-12-18T00:04:46;48.07;;;27.53;;
18931;SDS011;9598;50.954;3.112;2022-12-18T00:09:48;53.33;;;29.03;;
18931;SDS011;9598;50.954;3.112;2022-12-18T00:14:50;55.70;;;28.03;;
18931;SDS011;9598;50.954;3.112;2022-12-18T00:19:53;51.30;;;30.43;;
18931;SDS011;9598;50.954;3.112;2022-12-18T00:24:55;59.10;;;31.23;;
18931;SDS011;9598;50.954;3.112;2022-12-18T00:29:57;52.97;;;28.40;;
18931;SDS011;9598;50.954;3.112;2022-12-18T00:35:01;50.87;;;29.00;;
18931;SDS011;9598;50.954;3.112;2022-12-18T00:40:05;57.67;;;31.30;;
18931;SDS011;9598;50.954;3.112;2022-12-18T00:45:09;58.10;;;30.37;;
18931;SDS011;9598;50.954;3.112;2022-12-18T00:50:13;57.67;;;31.17;;
18931;SDS011;9598;50.954;3.112;2022-12-18T00:55:15;55.17;;;29.60;;
18931;SDS011;9598;50.954;3.112;2022-12-18T01:00:18;60.33;;;30.53;;
18931;SDS011;9598;50.954;3.112;2022-12-18T01:05:21;54.70;;;31.67;;
18931;SDS011;9598;50.954;3.112;2022-12-18T01:10:24;54.17;;;29.07;;
18931;SDS011;9598;50.954;3.112;2022-12-18T01:15:26;53.07;;;27.40;;
18931;SDS011;9598;50.954;3.112;2022-12-18T01:20:30;54.00;;;30.27;;
18931;SDS011;9598;50.954;3.112;2022-12-18T01:25:32;54.57;;;31.47;;
18931;SDS011;9598;50.954;3.112;2022-12-18T01:30:34;52.63;;;29.07;;
18931;SDS011;9598;50.954;3.112;2022-12-18T01:35:41;50.80;;;29.03;;
18931;SDS011;9598;50.954;3.112;2022-12-18T01:40:43;50.07;;;27.90;;
18931;SDS011;9598;50.954;3.112;2022-12-18T01:45:45;55.03;;;30.13;;
18931;SDS011;9598;50.954;3.112;2022-12-18T01:50:49;55.60;;;31.13;;
18931;SDS011;9598;50.954;3.112;2022-12-18T01:55:51;57.10;;;29.93;;
18931;SDS011;9598;50.954;3.112;2022-12-18T02:00:55;53.93;;;29.43;;
18931;SDS011;9598;50.954;3.112;2022-12-18T02:06:00;53.17;;;29.13;;
18931;SDS011;9598;50.954;3.112;2022-12-18T02:11:08;51.13;;;27.77;;
18931;SDS011;9598;50.954;3.112;2022-12-18T02:16:19;48.77;;;28.07;;
18931;SDS011;9598;50.954;3.112;2022-12-18T02:21:30;48.13;;;26.97;;
18931;SDS011;9598;50.954;3.112;2022-12-18T02:26:40;46.57;;;26.47;;
18931;SDS011;9598;50.954;3.112;2022-12-18T02:31:47;42.00;;;26.00;;
18931;SDS011;9598;50.954;3.112;2022-12-18T02:36:53;41.40;;;24.60;;
18931;SDS011;9598;50.954;3.112;2022-12-18T02:41:59;42.23;;;24.67;;
18931;SDS011;9598;50.954;3.112;2022-12-18T02:47:08;42.83;;;25.07;;
18931;SDS011;9598;50.954;3.112;2022-12-18T02:52:13;38.60;;;22.07;;
18931;SDS011;9598;50.954;3.112;2022-12-18T02:57:27;40.87;;;24.07;;
18931;SDS011;9598;50.954;3.112;2022-12-18T03:02:37;31.30;;;22.03;;
18931;SDS011;9598;50.954;3.112;2022-12-18T03:07:47;33.67;;;22.20;;
18931;SDS011;9598;50.954;3.112;2022-12-18T03:12:56;35.90;;;21.37;;
18931;SDS011;9598;50.954;3.112;2022-12-18T03:18:05;35.47;;;22.93;;
18931;SDS011;9598;50.954;3.112;2022-12-18T03:23:13;33.67;;;21.13;;
18931;SDS011;9598;50.954;3.112;2022-12-18T03:28:23;28.03;;;17.00;;
18931;SDS011;9598;50.954;3.112;2022-12-18T03:33:34;34.77;;;20.63;;
18931;SDS011;9598;50.954;3.112;2022-12-18T03:38:40;36.53;;;20.07;;
18931;SDS011;9598;50.954;3.112;2022-12-18T03:43:46;30.50;;;19.37;;
18931;SDS011;9598;50.954;3.112;2022-12-18T03:48:56;36.97;;;21.83;;
18931;SDS011;9598;50.954;3.112;2022-12-18T03:54:05;29.50;;;20.07;;
18931;SDS011;9598;50.954;3.112;2022-12-18T03:59:16;31.73;;;20.00;;
18931;SDS011;9598;50.954;3.112;2022-12-18T04:04:20;33.57;;;19.07;;
18931;SDS011;9598;50.954;3.112;2022-12-18T04:09:24;29.50;;;18.83;;
18931;SDS011;9598;50.954;3.112;2022-12-18T04:14:30;29.63;;;19.43;;
18931;SDS011;9598;50.954;3.112;2022-12-18T04:19:37;33.00;;;20.13;;
18931;SDS011;9598;50.954;3.112;2022-12-18T04:24:39;26.03;;;17.57;;
18931;SDS011;9598;50.954;3.112;2022-12-18T04:29:50;30.57;;;18.97;;
18931;SDS011;9598;50.954;3.112;2022-12-18T04:34:52;31.50;;;18.83;;
18931;SDS011;9598;50.954;3.112;2022-12-18T04:39:55;27.80;;;18.47;;
18931;SDS011;9598;50.954;3.112;2022-12-18T04:45:07;28.57;;;17.60;;
18931;SDS011;9598;50.954;3.112;2022-12-18T04:50:10;30.03;;;17.60;;
18931;SDS011;9598;50.954;3.112;2022-12-18T04:55:12;26.20;;;17.67;;
18931;SDS011;9598;50.954;3.112;2022-12-18T05:00:16;27.43;;;17.87;;
18931;SDS011;9598;50.954;3.112;2022-12-18T05:05:18;29.20;;;18.53;;
18931;SDS011;9598;50.954;3.112;2022-12-18T05:10:20;26.90;;;17.87;;
18931;SDS011;9598;50.954;3.112;2022-12-18T05:15:24;26.67;;;18.23;;
18931;SDS011;9598;50.954;3.112;2022-12-18T05:20:28;26.40;;;18.00;;
18931;SDS011;9598;50.954;3.112;2022-12-18T05:25:30;25.97;;;16.83;;
18931;SDS011;9598;50.954;3.112;2022-12-18T05:30:34;27.30;;;17.77;;
18931;SDS011;9598;50.954;3.112;2022-12-18T05:35:36;23.43;;;16.10;;
18931;SDS011;9598;50.954;3.112;2022-12-18T05:40:41;27.33;;;17.43;;
18931;SDS011;9598;50.954;3.112;2022-12-18T05:45:45;27.77;;;18.73;;
18931;SDS011;9598;50.954;3.112;2022-12-18T05:50:48;27.67;;;17.77;;
18931;SDS011;9598;50.954;3.112;2022-12-18T05:55:51;27.90;;;18.10;;
18931;SDS011;9598;50.954;3.112;2022-12-18T06:00:54;30.70;;;17.70;;
18931;SDS011;9598;50.954;3.112;2022-12-18T06:05:56;24.23;;;16.00;;
18931;SDS011;9598;50.954;3.112;2022-12-18T06:10:58;25.77;;;16.07;;
18931;SDS011;9598;50.954;3.112;2022-12-18T06:16:03;26.80;;;15.27;;
18931;SDS011;9598;50.954;3.112;2022-12-18T06:21:06;21.37;;;14.80;;
18931;SDS011;9598;50.954;3.112;2022-12-18T06:26:09;20.67;;;13.03;;
18931;SDS011;9598;50.954;3.112;2022-12-18T06:31:13;29.90;;;18.97;;
18931;SDS011;9598;50.954;3.112;2022-12-18T06:36:15;25.37;;;16.07;;
18931;SDS011;9598;50.954;3.112;2022-12-18T06:41:18;41.43;;;22.27;;
18931;SDS011;9598;50.954;3.112;2022-12-18T06:46:23;65.37;;;34.43;;
18931;SDS011;9598;50.954;3.112;2022-12-18T06:51:25;27.00;;;17.63;;
18931;SDS011;9598;50.954;3.112;2022-12-18T06:56:28;22.93;;;13.80;;
18931;SDS011;9598;50.954;3.112;2022-12-18T07:01:31;18.40;;;13.07;;
18931;SDS011;9598;50.954;3.112;2022-12-18T07:06:33;21.67;;;13.63;;
18931;SDS011;9598;50.954;3.112;2022-12-18T07:11:36;21.67;;;14.40;;
18931;SDS011;9598;50.954;3.112;2022-12-18T07:16:39;17.63;;;12.37;;
18931;SDS011;9598;50.954;3.112;2022-12-18T07:21:41;17.13;;;11.90;;
18931;SDS011;9598;50.954;3.112;2022-12-18T07:26:45;17.33;;;11.90;;
18931;SDS011;9598;50.954;3.112;2022-12-18T07:31:48;18.87;;;11.93;;
18931;SDS011;9598;50.954;3.112;2022-12-18T07:36:50;20.43;;;12.57;;
18931;SDS011;9598;50.954;3.112;2022-12-18T07:41:52;19.17;;;12.07;;
18931;SDS011;9598;50.954;3.112;2022-12-18T07:47:10;20.30;;;12.20;;
18931;SDS011;9598;50.954;3.112;2022-12-18T07:52:12;15.53;;;11.90;;
18931;SDS011;9598;50.954;3.112;2022-12-18T07:57:14;17.47;;;11.83;;
18931;SDS011;9598;50.954;3.112;2022-12-18T08:02:17;17.27;;;11.13;;
18931;SDS011;9598;50.954;3.112;2022-12-18T08:07:20;17.07;;;11.07;;
18931;SDS011;9598;50.954;3.112;2022-12-18T08:12:22;19.30;;;12.13;;
18931;SDS011;9598;50.954;3.112;2022-12-18T08:17:25;17.60;;;11.07;;
18931;SDS011;9598;50.954;3.112;2022-12-18T08:22:27;19.37;;;12.20;;
18931;SDS011;9598;50.954;3.112;2022-12-18T08:27:29;16.90;;;10.10;;
18931;SDS011;9598;50.954;3.112;2022-12-18T08:32:33;17.43;;;12.00;;
18931;SDS011;9598;50.954;3.112;2022-12-18T08:37:35;16.07;;;11.70;;
18931;SDS011;9598;50.954;3.112;2022-12-18T08:42:37;18.83;;;12.60;;
18931;SDS011;9598;50.954;3.112;2022-12-18T08:47:58;20.60;;;13.10;;
18931;SDS011;9598;50.954;3.112;2022-12-18T08:53:00;24.07;;;14.67;;
18931;SDS011;9598;50.954;3.112;2022-12-18T08:58:02;19.70;;;13.17;;
18931;SDS011;9598;50.954;3.112;2022-12-18T09:03:09;16.87;;;10.97;;
18931;SDS011;9598;50.954;3.112;2022-12-18T09:08:13;18.70;;;13.00;;
18931;SDS011;9598;50.954;3.112;2022-12-18T09:13:15;21.67;;;13.37;;
18931;SDS011;9598;50.954;3.112;2022-12-18T09:18:20;19.37;;;13.77;;
18931;SDS011;9598;50.954;3.112;2022-12-18T09:23:23;18.80;;;12.60;;
18931;SDS011;9598;50.954;3.112;2022-12-18T09:28:25;19.23;;;12.97;;
18931;SDS011;9598;50.954;3.112;2022-12-18T09:33:29;21.57;;;12.30;;
18931;SDS011;9598;50.954;3.112;2022-12-18T09:38:32;19.67;;;13.53;;
18931;SDS011;9598;50.954;3.112;2022-12-18T09:43:35;19.10;;;13.23;;
18931;SDS011;9598;50.954;3.112;2022-12-18T09:48:45;20.40;;;14.03;;
18931;SDS011;9598;50.954;3.112;2022-12-18T09:53:51;23.00;;;14.87;;
18931;SDS011;9598;50.954;3.112;2022-12-18T09:58:59;16.03;;;11.20;;
18931;SDS011;9598;50.954;3.112;2022-12-18T10:04:04;22.47;;;12.67;;
18931;SDS011;9598;50.954;3.112;2022-12-18T10:09:09;23.93;;;15.77;;
18931;SDS011;9598;50.954;3.112;2022-12-18T10:14:22;24.93;;;15.80;;
18931;SDS011;9598;50.954;3.112;2022-12-18T10:19:36;21.93;;;16.63;;
18931;SDS011;9598;50.954;3.112;2022-12-18T10:24:50;25.07;;;16.70;;
18931;SDS011;9598;50.954;3.112;2022-12-18T10:30:04;23.87;;;16.20;;
18931;SDS011;9598;50.954;3.112;2022-12-18T10:35:16;24.67;;;17.00;;
18931;SDS011;9598;50.954;3.112;2022-12-18T10:40:21;23.80;;;15.73;;
18931;SDS011;9598;50.954;3.112;2022-12-18T10:45:23;25.83;;;17.50;;
18931;SDS011;9598;50.954;3.112;2022-12-18T10:50:28;23.10;;;16.97;;
18931;SDS011;9598;50.954;3.112;2022-12-18T10:55:31;28.30;;;17.93;;
18931;SDS011;9598;50.954;3.112;2022-12-18T11:00:35;27.30;;;18.80;;
18931;SDS011;9598;50.954;3.112;2022-12-18T11:05:39;26.63;;;18.70;;
18931;SDS011;9598;50.954;3.112;2022-12-18T11:10:41;28.20;;;18.10;;
18931;SDS011;9598;50.954;3.112;2022-12-18T11:15:48;28.30;;;19.40;;
18931;SDS011;9598;50.954;3.112;2022-12-18T11:20:53;32.90;;;21.40;;
18931;SDS011;9598;50.954;3.112;2022-12-18T11:25:59;27.93;;;19.70;;
18931;SDS011;9598;50.954;3.112;2022-12-18T11:31:11;31.10;;;20.37;;
18931;SDS011;9598;50.954;3.112;2022-12-18T11:36:20;32.33;;;21.57;;
18931;SDS011;9598;50.954;3.112;2022-12-18T11:41:26;27.47;;;19.77;;
18931;SDS011;9598;50.954;3.112;2022-12-18T11:46:47;34.10;;;21.70;;
18931;SDS011;9598;50.954;3.112;2022-12-18T11:51:57;30.63;;;20.23;;
18931;SDS011;9598;50.954;3.112;2022-12-18T11:57:04;27.73;;;19.63;;
18931;SDS011;9598;50.954;3.112;2022-12-18T12:02:16;27.87;;;18.47;;
18931;SDS011;9598;50.954;3.112;2022-12-18T12:07:34;30.57;;;20.13;;
18931;SDS011;9598;50.954;3.112;2022-12-18T12:12:53;33.77;;;22.03;;
18931;SDS011;9598;50.954;3.112;2022-12-18T12:18:06;27.00;;;19.20;;
18931;SDS011;9598;50.954;3.112;2022-12-18T12:23:19;33.10;;;21.53;;
18931;SDS011;9598;50.954;3.112;2022-12-18T12:28:44;35.83;;;21.00;;
18931;SDS011;9598;50.954;3.112;2022-12-18T12:34:01;31.63;;;22.03;;
18931;SDS011;9598;50.954;3.112;2022-12-18T12:39:15;27.33;;;18.40;;
18931;SDS011;9598;50.954;3.112;2022-12-18T12:44:23;34.30;;;23.00;;
18931;SDS011;9598;50.954;3.112;2022-12-18T12:49:29;34.67;;;22.90;;
18931;SDS011;9598;50.954;3.112;2022-12-18T12:54:38;35.13;;;22.93;;
18931;SDS011;9598;50.954;3.112;2022-12-18T12:59:42;35.00;;;23.47;;
18931;SDS011;9598;50.954;3.112;2022-12-18T13:04:52;37.67;;;24.43;;
18931;SDS011;9598;50.954;3.112;2022-12-18T13:15:33;34.03;;;22.40;;
18931;SDS011;9598;50.954;3.112;2022-12-18T13:20:41;38.13;;;24.17;;
18931;SDS011;9598;50.954;3.112;2022-12-18T13:25:46;34.57;;;23.60;;
18931;SDS011;9598;50.954;3.112;2022-12-18T13:30:49;30.77;;;22.17;;
18931;SDS011;9598;50.954;3.112;2022-12-18T13:36:01;31.87;;;23.23;;
18931;SDS011;9598;50.954;3.112;2022-12-18T13:41:20;33.37;;;20.03;;
18931;SDS011;9598;50.954;3.112;2022-12-18T13:46:26;32.53;;;20.83;;
18931;SDS011;9598;50.954;3.112;2022-12-18T13:51:30;29.13;;;20.03;;
18931;SDS011;9598;50.954;3.112;2022-12-18T13:56:42;30.40;;;20.93;;
18931;SDS011;9598;50.954;3.112;2022-12-18T14:01:46;36.33;;;22.00;;
18931;SDS011;9598;50.954;3.112;2022-12-18T14:06:52;40.37;;;24.20;;
18931;SDS011;9598;50.954;3.112;2022-12-18T14:11:58;33.63;;;21.87;;
18931;SDS011;9598;50.954;3.112;2022-12-18T14:17:19;38.40;;;22.47;;
18931;SDS011;9598;50.954;3.112;2022-12-18T14:22:22;40.37;;;23.87;;
18931;SDS011;9598;50.954;3.112;2022-12-18T14:27:29;35.17;;;22.50;;
18931;SDS011;9598;50.954;3.112;2022-12-18T14:32:31;39.17;;;24.73;;
18931;SDS011;9598;50.954;3.112;2022-12-18T14:37:33;29.17;;;19.47;;
18931;SDS011;9598;50.954;3.112;2022-12-18T14:42:37;32.57;;;20.80;;
18931;SDS011;9598;50.954;3.112;2022-12-18T14:47:42;31.70;;;20.60;;
18931;SDS011;9598;50.954;3.112;2022-12-18T14:52:44;35.80;;;22.00;;
18931;SDS011;9598;50.954;3.112;2022-12-18T14:57:49;35.70;;;22.30;;
18931;SDS011;9598;50.954;3.112;2022-12-18T15:02:54;38.53;;;22.77;;
18931;SDS011;9598;50.954;3.112;2022-12-18T15:07:58;32.63;;;20.13;;
18931;SDS011;9598;50.954;3.112;2022-12-18T15:13:08;34.30;;;22.57;;
18931;SDS011;9598;50.954;3.112;2022-12-18T15:18:19;36.97;;;22.60;;
18931;SDS011;9598;50.954;3.112;2022-12-18T15:23:25;52.20;;;33.40;;
18931;SDS011;9598;50.954;3.112;2022-12-18T15:28:33;37.87;;;23.43;;
18931;SDS011;9598;50.954;3.112;2022-12-18T15:33:38;38.00;;;23.23;;
18931;SDS011;9598;50.954;3.112;2022-12-18T15:38:45;42.83;;;23.67;;
18931;SDS011;9598;50.954;3.112;2022-12-18T15:43:49;33.93;;;21.30;;
18931;SDS011;9598;50.954;3.112;2022-12-18T15:48:53;38.43;;;23.03;;
18931;SDS011;9598;50.954;3.112;2022-12-18T15:53:56;38.75;;;22.88;;
18931;SDS011;9598;50.954;3.112;2022-12-18T15:59:02;36.67;;;21.10;;
18931;SDS011;9598;50.954;3.112;2022-12-18T16:04:11;41.60;;;22.83;;
18931;SDS011;9598;50.954;3.112;2022-12-18T16:09:14;33.13;;;19.20;;
18931;SDS011;9598;50.954;3.112;2022-12-18T16:14:20;36.73;;;22.83;;
18931;SDS011;9598;50.954;3.112;2022-12-18T16:19:23;41.22;;;25.23;;
18931;SDS011;9598;50.954;3.112;2022-12-18T16:24:26;42.00;;;28.00;;
18931;SDS011;9598;50.954;3.112;2022-12-18T16:29:31;37.80;;;24.33;;
18931;SDS011;9598;50.954;3.112;2022-12-18T16:34:33;45.00;;;25.30;;
18931;SDS011;9598;50.954;3.112;2022-12-18T16:39:36;37.07;;;21.80;;
18931;SDS011;9598;50.954;3.112;2022-12-18T16:44:40;37.75;;;23.75;;
18931;SDS011;9598;50.954;3.112;2022-12-18T16:49:42;43.23;;;25.33;;
18931;SDS011;9598;50.954;3.112;2022-12-18T16:54:46;41.97;;;23.63;;
18931;SDS011;9598;50.954;3.112;2022-12-18T16:59:50;36.45;;;22.35;;
18931;SDS011;9598;50.954;3.112;2022-12-18T17:04:56;41.43;;;23.63;;
18931;SDS011;9598;50.954;3.112;2022-12-18T17:09:58;44.20;;;25.92;;
18931;SDS011;9598;50.954;3.112;2022-12-18T17:15:02;39.28;;;22.45;;
18931;SDS011;9598;50.954;3.112;2022-12-18T17:20:05;43.50;;;23.80;;
18931;SDS011;9598;50.954;3.112;2022-12-18T17:25:07;39.22;;;22.95;;
18931;SDS011;9598;50.954;3.112;2022-12-18T17:30:12;43.73;;;24.13;;
18931;SDS011;9598;50.954;3.112;2022-12-18T17:35:14;41.13;;;25.63;;
18931;SDS011;9598;50.954;3.112;2022-12-18T17:40:16;41.38;;;24.83;;
18931;SDS011;9598;50.954;3.112;2022-12-18T17:45:20;50.38;;;26.83;;
18931;SDS011;9598;50.954;3.112;2022-12-18T17:50:22;39.75;;;23.55;;
18931;SDS011;9598;50.954;3.112;2022-12-18T17:55:24;38.90;;;23.80;;
18931;SDS011;9598;50.954;3.112;2022-12-18T18:00:28;38.03;;;22.63;;
18931;SDS011;9598;50.954;3.112;2022-12-18T18:05:30;38.07;;;22.40;;
18931;SDS011;9598;50.954;3.112;2022-12-18T18:10:34;38.27;;;23.43;;
18931;SDS011;9598;50.954;3.112;2022-12-18T18:15:38;38.15;;;22.70;;
18931;SDS011;9598;50.954;3.112;2022-12-18T18:20:41;42.13;;;26.63;;
18931;SDS011;9598;50.954;3.112;2022-12-18T18:25:43;38.33;;;22.20;;
18931;SDS011;9598;50.954;3.112;2022-12-18T18:30:47;36.17;;;21.70;;
18931;SDS011;9598;50.954;3.112;2022-12-18T18:35:49;40.55;;;21.85;;
18931;SDS011;9598;50.954;3.112;2022-12-18T18:40:56;42.35;;;26.90;;
18931;SDS011;9598;50.954;3.112;2022-12-18T18:46:01;36.50;;;22.40;;
18931;SDS011;9598;50.954;3.112;2022-12-18T18:51:05;40.33;;;23.50;;
18931;SDS011;9598;50.954;3.112;2022-12-18T18:56:08;34.38;;;22.42;;
18931;SDS011;9598;50.954;3.112;2022-12-18T19:01:14;39.15;;;22.67;;
18931;SDS011;9598;50.954;3.112;2022-12-18T19:06:18;35.80;;;22.10;;
18931;SDS011;9598;50.954;3.112;2022-12-18T19:11:23;38.88;;;23.75;;
18931;SDS011;9598;50.954;3.112;2022-12-18T19:16:45;38.17;;;22.07;;
18931;SDS011;9598;50.954;3.112;2022-12-18T19:21:47;40.78;;;22.65;;
18931;SDS011;9598;50.954;3.112;2022-12-18T19:26:49;37.67;;;22.13;;
18931;SDS011;9598;50.954;3.112;2022-12-18T19:31:53;38.42;;;26.35;;
18931;SDS011;9598;50.954;3.112;2022-12-18T19:36:55;47.20;;;28.85;;
18931;SDS011;9598;50.954;3.112;2022-12-18T19:41:58;40.55;;;23.73;;
18931;SDS011;9598;50.954;3.112;2022-12-18T19:47:01;37.63;;;22.48;;
18931;SDS011;9598;50.954;3.112;2022-12-18T19:52:03;37.80;;;23.42;;
18931;SDS011;9598;50.954;3.112;2022-12-18T19:57:05;37.50;;;22.55;;
18931;SDS011;9598;50.954;3.112;2022-12-18T20:07:15;35.17;;;20.48;;
18931;SDS011;9598;50.954;3.112;2022-12-18T20:12:17;33.92;;;21.95;;
18931;SDS011;9598;50.954;3.112;2022-12-18T20:17:21;37.15;;;22.77;;
18931;SDS011;9598;50.954;3.112;2022-12-18T20:22:23;29.77;;;18.02;;
18931;SDS011;9598;50.954;3.112;2022-12-18T20:27:25;36.38;;;21.63;;
18931;SDS011;9598;50.954;3.112;2022-12-18T20:32:28;34.85;;;20.77;;
18931;SDS011;9598;50.954;3.112;2022-12-18T20:37:30;33.45;;;20.70;;
18931;SDS011;9598;50.954;3.112;2022-12-18T20:42:33;33.83;;;20.55;;
18931;SDS011;9598;50.954;3.112;2022-12-18T20:47:36;49.15;;;34.13;;
18931;SDS011;9598;50.954;3.112;2022-12-18T20:52:38;28.92;;;18.15;;
18931;SDS011;9598;50.954;3.112;2022-12-18T20:57:40;31.23;;;19.00;;
18931;SDS011;9598;50.954;3.112;2022-12-18T21:02:43;32.05;;;19.63;;
18931;SDS011;9598;50.954;3.112;2022-12-18T21:07:45;30.08;;;20.17;;
18931;SDS011;9598;50.954;3.112;2022-12-18T21:12:47;31.55;;;20.38;;
18931;SDS011;9598;50.954;3.112;2022-12-18T21:17:52;28.17;;;18.63;;
18931;SDS011;9598;50.954;3.112;2022-12-18T21:22:57;29.42;;;18.98;;
18931;SDS011;9598;50.954;3.112;2022-12-18T21:28:01;28.02;;;18.38;;
18931;SDS011;9598;50.954;3.112;2022-12-18T21:33:05;30.90;;;19.35;;
18931;SDS011;9598;50.954;3.112;2022-12-18T21:38:07;28.92;;;19.90;;
18931;SDS011;9598;50.954;3.112;2022-12-18T21:43:09;27.65;;;18.75;;
18931;SDS011;9598;50.954;3.112;2022-12-18T21:48:29;25.83;;;16.70;;
18931;SDS011;9598;50.954;3.112;2022-12-18T21:53:31;27.60;;;17.63;;
18931;SDS011;9598;50.954;3.112;2022-12-18T21:58:33;25.77;;;17.27;;
18931;SDS011;9598;50.954;3.112;2022-12-18T22:03:36;24.77;;;16.65;;
18931;SDS011;9598;50.954;3.112;2022-12-18T22:08:38;22.38;;;14.35;;
18931;SDS011;9598;50.954;3.112;2022-12-18T22:13:40;24.42;;;16.15;;
18931;SDS011;9598;50.954;3.112;2022-12-18T22:18:44;20.60;;;14.40;;
18931;SDS011;9598;50.954;3.112;2022-12-18T22:23:50;21.40;;;14.30;;
18931;SDS011;9598;50.954;3.112;2022-12-18T22:28:53;23.35;;;15.43;;
18931;SDS011;9598;50.954;3.112;2022-12-18T22:34:14;21.85;;;13.82;;
18931;SDS011;9598;50.954;3.112;2022-12-18T22:39:18;21.05;;;14.65;;
18931;SDS011;9598;50.954;3.112;2022-12-18T22:44:21;23.25;;;14.73;;
18931;SDS011;9598;50.954;3.112;2022-12-18T22:49:25;21.17;;;14.88;;
18931;SDS011;9598;50.954;3.112;2022-12-18T22:54:27;21.13;;;13.48;;
18931;SDS011;9598;50.954;3.112;2022-12-18T22:59:29;17.85;;;11.23;;
18931;SDS011;9598;50.954;3.112;2022-12-18T23:04:32;18.00;;;11.82;;
18931;SDS011;9598;50.954;3.112;2022-12-18T23:09:35;19.63;;;14.13;;
18931;SDS011;9598;50.954;3.112;2022-12-18T23:14:38;20.27;;;12.20;;
18931;SDS011;9598;50.954;3.112;2022-12-18T23:19:41;15.63;;;10.68;;
18931;SDS011;9598;50.954;3.112;2022-12-18T23:24:43;21.10;;;13.77;;
18931;SDS011;9598;50.954;3.112;2022-12-18T23:29:47;18.40;;;11.23;;
18931;SDS011;9598;50.954;3.112;2022-12-18T23:34:50;19.00;;;13.77;;
18931;SDS011;9598;50.954;3.112;2022-12-18T23:39:53;19.52;;;13.50;;
18931;SDS011;9598;50.954;3.112;2022-12-18T23:44:55;15.07;;;11.82;;
18931;SDS011;9598;50.954;3.112;2022-12-18T23:49:58;16.13;;;11.75;;
18931;SDS011;9598;50.954;3.112;2022-12-18T23:55:01;16.77;;;10.43;;
